sensor_id;sensor_type;location;lat;lon;timestamp;temperature;humidity
32107;DHT22;18622;51.998;10.440;2022-08-19T02:18:46;20.60;92.70
32107;DHT22;18622;51.998;10.440;2022-08-19T02:21:17;20.60;92.70
32107;DHT22;18622;51.998;10.440;2022-08-19T02:23:46;20.60;92.70
32107;DHT22;18622;51.998;10.440;2022-08-19T02:26:15;20.60;92.70
32107;DHT22;18622;51.998;10.440;2022-08-19T02:28:42;20.60;92.70
32107;DHT22;18622;51.998;10.440;2022-08-19T02:31:14;20.60;92.70
32107;DHT22;18622;51.998;10.440;2022-08-19T02:33:42;20.60;92.80
32107;DHT22;18622;51.998;10.440;2022-08-19T02:36:11;20.60;92.80
32107;DHT22;18622;51.998;10.440;2022-08-19T02:38:39;20.50;92.80
32107;DHT22;18622;51.998;10.440;2022-08-19T02:41:16;20.60;92.90
32107;DHT22;18622;51.998;10.440;2022-08-19T02:43:41;20.60;92.90
32107;DHT22;18622;51.998;10.440;2022-08-19T02:46:23;20.60;92.90
32107;DHT22;18622;51.998;10.440;2022-08-19T02:48:52;20.60;92.90
32107;DHT22;18622;51.998;10.440;2022-08-19T02:51:29;20.50;92.80
32107;DHT22;18622;51.998;10.440;2022-08-19T02:53:52;20.50;92.80
32107;DHT22;18622;51.998;10.440;2022-08-19T02:56:21;20.50;92.80
32107;DHT22;18622;51.998;10.440;2022-08-19T02:58:50;20.50;92.90
32107;DHT22;18622;51.998;10.440;2022-08-19T03:31:34;20.20;93.70
32107;DHT22;18622;51.998;10.440;2022-08-19T03:34:02;20.20;93.60
32107;DHT22;18622;51.998;10.440;2022-08-19T03:36:30;20.10;93.70
32107;DHT22;18622;51.998;10.440;2022-08-19T03:39:00;20.10;93.70
32107;DHT22;18622;51.998;10.440;2022-08-19T03:41:32;20.10;93.60
32107;DHT22;18622;51.998;10.440;2022-08-19T03:43:58;20.10;93.60
32107;DHT22;18622;51.998;10.440;2022-08-19T03:46:29;20.10;93.60
32107;DHT22;18622;51.998;10.440;2022-08-19T03:48:59;20.10;93.60
32107;DHT22;18622;51.998;10.440;2022-08-19T03:51:31;20.10;93.60
32107;DHT22;18622;51.998;10.440;2022-08-19T03:53:59;20.10;93.50
32107;DHT22;18622;51.998;10.440;2022-08-19T03:56:27;20.10;93.50
32107;DHT22;18622;51.998;10.440;2022-08-19T03:58:55;20.10;93.40
32107;DHT22;18622;51.998;10.440;2022-08-19T04:01:26;20.10;93.40
32107;DHT22;18622;51.998;10.440;2022-08-19T04:03:59;20.10;93.40
32107;DHT22;18622;51.998;10.440;2022-08-19T04:06:29;20.10;93.40
32107;DHT22;18622;51.998;10.440;2022-08-19T04:08:59;20.10;93.20
32107;DHT22;18622;51.998;10.440;2022-08-19T04:11:45;20.10;93.10
32107;DHT22;18622;51.998;10.440;2022-08-19T04:14:10;20.10;93.00
32107;DHT22;18622;51.998;10.440;2022-08-19T04:16:38;20.20;93.00
32107;DHT22;18622;51.998;10.440;2022-08-19T04:21:48;20.10;92.90
32107;DHT22;18622;51.998;10.440;2022-08-19T04:27:40;20.20;92.90
32107;DHT22;18622;51.998;10.440;2022-08-19T04:30:09;20.20;92.80
32107;DHT22;18622;51.998;10.440;2022-08-19T04:32:37;20.10;92.80
32107;DHT22;18622;51.998;10.440;2022-08-19T04:35:05;20.10;92.80
32107;DHT22;18622;51.998;10.440;2022-08-19T04:37:33;20.20;92.90
32107;DHT22;18622;51.998;10.440;2022-08-19T04:40:01;20.20;92.90
32107;DHT22;18622;51.998;10.440;2022-08-19T04:42:47;20.20;92.80
32107;DHT22;18622;51.998;10.440;2022-08-19T04:45:15;20.20;92.60
32107;DHT22;18622;51.998;10.440;2022-08-19T04:47:43;20.10;92.50
32107;DHT22;18622;51.998;10.440;2022-08-19T04:50:11;20.10;92.60
32107;DHT22;18622;51.998;10.440;2022-08-19T04:52:39;20.00;92.60
32107;DHT22;18622;51.998;10.440;2022-08-19T04:55:11;19.90;92.70
32107;DHT22;18622;51.998;10.440;2022-08-19T04:57:39;19.90;92.80
32107;DHT22;18622;51.998;10.440;2022-08-19T05:00:08;19.90;92.90
32107;DHT22;18622;51.998;10.440;2022-08-19T05:02:37;19.90;92.90
32107;DHT22;18622;51.998;10.440;2022-08-19T05:05:05;20.00;92.90
32107;DHT22;18622;51.998;10.440;2022-08-19T05:07:33;20.00;92.90
32107;DHT22;18622;51.998;10.440;2022-08-19T05:10:01;20.10;92.80
32107;DHT22;18622;51.998;10.440;2022-08-19T05:12:29;20.10;92.90
32107;DHT22;18622;51.998;10.440;2022-08-19T05:14:58;20.10;92.50
32107;DHT22;18622;51.998;10.440;2022-08-19T09:03:44;23.90;75.80
32107;DHT22;18622;51.998;10.440;2022-08-19T09:09:04;24.00;74.00
32107;DHT22;18622;51.998;10.440;2022-08-19T09:16:53;24.20;73.40
32107;DHT22;18622;51.998;10.440;2022-08-19T09:19:20;24.50;72.60
32107;DHT22;18622;51.998;10.440;2022-08-19T09:21:48;24.70;71.80
32107;DHT22;18622;51.998;10.440;2022-08-19T09:24:16;25.00;70.20
32107;DHT22;18622;51.998;10.440;2022-08-19T09:26:44;25.00;69.00
32107;DHT22;18622;51.998;10.440;2022-08-19T09:29:12;25.10;70.00
32107;DHT22;18622;51.998;10.440;2022-08-19T09:31:40;25.40;69.90
32107;DHT22;18622;51.998;10.440;2022-08-19T09:34:08;25.60;68.70
32107;DHT22;18622;51.998;10.440;2022-08-19T09:36:36;25.70;67.50
32107;DHT22;18622;51.998;10.440;2022-08-19T09:39:06;25.70;67.60
32107;DHT22;18622;51.998;10.440;2022-08-19T09:41:33;25.80;67.30
32107;DHT22;18622;51.998;10.440;2022-08-19T09:44:01;25.80;66.50
32107;DHT22;18622;51.998;10.440;2022-08-19T09:46:29;25.70;66.40
32107;DHT22;18622;51.998;10.440;2022-08-19T09:48:59;25.70;67.00
32107;DHT22;18622;51.998;10.440;2022-08-19T09:51:27;25.90;66.20
32107;DHT22;18622;51.998;10.440;2022-08-19T09:54:01;26.20;65.50
32107;DHT22;18622;51.998;10.440;2022-08-19T09:56:29;26.40;64.70
32107;DHT22;18622;51.998;10.440;2022-08-19T09:59:01;26.50;65.00
32107;DHT22;18622;51.998;10.440;2022-08-19T10:01:31;26.70;64.30
32107;DHT22;18622;51.998;10.440;2022-08-19T10:04:00;26.80;63.50
32107;DHT22;18622;51.998;10.440;2022-08-19T10:06:30;26.80;61.80
32107;DHT22;18622;51.998;10.440;2022-08-19T10:09:00;26.70;60.60
32107;DHT22;18622;51.998;10.440;2022-08-19T10:11:29;26.70;61.90
32107;DHT22;18622;51.998;10.440;2022-08-19T10:13:57;26.70;61.10
32107;DHT22;18622;51.998;10.440;2022-08-19T10:16:25;26.90;61.60
32107;DHT22;18622;51.998;10.440;2022-08-19T10:18:53;27.20;61.10
32107;DHT22;18622;51.998;10.440;2022-08-19T10:21:24;27.50;61.00
32107;DHT22;18622;51.998;10.440;2022-08-19T10:23:56;27.80;59.50
32107;DHT22;18622;51.998;10.440;2022-08-19T10:26:26;28.00;59.30
32107;DHT22;18622;51.998;10.440;2022-08-19T10:28:55;28.30;58.90
32107;DHT22;18622;51.998;10.440;2022-08-19T10:31:26;28.70;57.80
32107;DHT22;18622;51.998;10.440;2022-08-19T10:33:54;29.20;56.80
32107;DHT22;18622;51.998;10.440;2022-08-19T10:36:27;29.40;55.00
32107;DHT22;18622;51.998;10.440;2022-08-19T10:38:57;29.70;55.30
32107;DHT22;18622;51.998;10.440;2022-08-19T10:41:30;29.80;55.50
32107;DHT22;18622;51.998;10.440;2022-08-19T10:44:01;30.10;54.60
32107;DHT22;18622;51.998;10.440;2022-08-19T10:46:29;30.40;52.60
32107;DHT22;18622;51.998;10.440;2022-08-19T10:49:02;30.70;53.60
32107;DHT22;18622;51.998;10.440;2022-08-19T10:51:31;31.20;50.50
32107;DHT22;18622;51.998;10.440;2022-08-19T10:54:17;31.40;50.40
32107;DHT22;18622;51.998;10.440;2022-08-19T10:56:45;31.60;49.10
32107;DHT22;18622;51.998;10.440;2022-08-19T10:59:24;31.50;49.30
32107;DHT22;18622;51.998;10.440;2022-08-19T12:30:59;38.50;34.70
32107;DHT22;18622;51.998;10.440;2022-08-19T12:33:26;39.00;34.50
32107;DHT22;18622;51.998;10.440;2022-08-19T12:35:59;39.20;33.00
32107;DHT22;18622;51.998;10.440;2022-08-19T12:38:25;39.20;33.40
32107;DHT22;18622;51.998;10.440;2022-08-19T12:40:53;39.30;33.70
32107;DHT22;18622;51.998;10.440;2022-08-19T12:43:21;39.70;33.30
32107;DHT22;18622;51.998;10.440;2022-08-19T12:45:49;39.80;33.40
32107;DHT22;18622;51.998;10.440;2022-08-19T12:48:16;40.00;32.80
32107;DHT22;18622;51.998;10.440;2022-08-19T12:50:45;40.10;32.50
32107;DHT22;18622;51.998;10.440;2022-08-19T12:53:13;39.90;32.20
32107;DHT22;18622;51.998;10.440;2022-08-19T12:55:42;40.00;32.40
32107;DHT22;18622;51.998;10.440;2022-08-19T12:58:10;40.20;32.60
32107;DHT22;18622;51.998;10.440;2022-08-19T13:00:39;40.30;31.60
32107;DHT22;18622;51.998;10.440;2022-08-19T13:03:07;40.20;31.20
32107;DHT22;18622;51.998;10.440;2022-08-19T13:05:34;39.30;31.70
32107;DHT22;18622;51.998;10.440;2022-08-19T13:08:02;38.70;33.20
32107;DHT22;18622;51.998;10.440;2022-08-19T13:10:32;38.40;32.60
32107;DHT22;18622;51.998;10.440;2022-08-19T13:13:05;38.00;32.50
32107;DHT22;18622;51.998;10.440;2022-08-19T13:15:38;37.70;32.90
32107;DHT22;18622;51.998;10.440;2022-08-19T13:18:13;37.40;32.90
32107;DHT22;18622;51.998;10.440;2022-08-19T13:20:40;37.20;33.80
32107;DHT22;18622;51.998;10.440;2022-08-19T13:23:09;37.40;33.70
32107;DHT22;18622;51.998;10.440;2022-08-19T13:25:36;37.60;33.00
32107;DHT22;18622;51.998;10.440;2022-08-19T13:28:04;37.50;34.10
32107;DHT22;18622;51.998;10.440;2022-08-19T13:30:33;37.70;33.10
32107;DHT22;18622;51.998;10.440;2022-08-19T13:33:18;37.70;33.90
32107;DHT22;18622;51.998;10.440;2022-08-19T13:35:56;37.60;34.40
32107;DHT22;18622;51.998;10.440;2022-08-19T13:38:20;37.20;34.00
32107;DHT22;18622;51.998;10.440;2022-08-19T13:40:49;36.90;34.20
32107;DHT22;18622;51.998;10.440;2022-08-19T13:43:18;37.10;34.20
32107;DHT22;18622;51.998;10.440;2022-08-19T13:45:48;37.60;34.00
32107;DHT22;18622;51.998;10.440;2022-08-19T13:48:16;38.30;33.20
32107;DHT22;18622;51.998;10.440;2022-08-19T13:50:45;38.70;33.10
32107;DHT22;18622;51.998;10.440;2022-08-19T13:53:15;38.90;32.70
32107;DHT22;18622;51.998;10.440;2022-08-19T13:55:43;38.80;33.10
32107;DHT22;18622;51.998;10.440;2022-08-19T13:58:12;39.10;32.90
32107;DHT22;18622;51.998;10.440;2022-08-19T14:00:43;39.40;31.70
32107;DHT22;18622;51.998;10.440;2022-08-19T14:03:10;39.70;31.50
32107;DHT22;18622;51.998;10.440;2022-08-19T14:05:39;40.30;30.90
32107;DHT22;18622;51.998;10.440;2022-08-19T14:08:06;40.40;30.90
32107;DHT22;18622;51.998;10.440;2022-08-19T14:10:34;40.40;30.40
32107;DHT22;18622;51.998;10.440;2022-08-19T14:13:03;40.30;30.50
32107;DHT22;18622;51.998;10.440;2022-08-19T14:15:31;40.00;30.30
32107;DHT22;18622;51.998;10.440;2022-08-19T14:17:59;39.70;30.30
32107;DHT22;18622;51.998;10.440;2022-08-19T14:20:27;39.00;30.90
32107;DHT22;18622;51.998;10.440;2022-08-19T14:22:55;38.70;31.20
32107;DHT22;18622;51.998;10.440;2022-08-19T14:25:25;38.50;32.50
32107;DHT22;18622;51.998;10.440;2022-08-19T14:27:53;38.70;31.90
32107;DHT22;18622;51.998;10.440;2022-08-19T14:30:23;39.00;31.90
32107;DHT22;18622;51.998;10.440;2022-08-19T14:32:54;39.00;31.70
32107;DHT22;18622;51.998;10.440;2022-08-19T14:35:22;38.90;31.90
32107;DHT22;18622;51.998;10.440;2022-08-19T14:37:50;39.00;32.20
32107;DHT22;18622;51.998;10.440;2022-08-19T14:40:25;39.60;32.20
32107;DHT22;18622;51.998;10.440;2022-08-19T14:42:58;40.00;30.60
32107;DHT22;18622;51.998;10.440;2022-08-19T14:45:30;40.00;31.10
32107;DHT22;18622;51.998;10.440;2022-08-19T14:47:58;40.00;31.00
32107;DHT22;18622;51.998;10.440;2022-08-19T14:50:27;40.20;31.10
32107;DHT22;18622;51.998;10.440;2022-08-19T14:53:00;40.30;30.40
32107;DHT22;18622;51.998;10.440;2022-08-19T14:55:28;40.40;31.40
32107;DHT22;18622;51.998;10.440;2022-08-19T14:57:56;40.50;30.40
32107;DHT22;18622;51.998;10.440;2022-08-19T15:00:24;40.50;30.30
32107;DHT22;18622;51.998;10.440;2022-08-19T15:02:52;40.30;30.40
32107;DHT22;18622;51.998;10.440;2022-08-19T15:05:21;40.00;30.70
32107;DHT22;18622;51.998;10.440;2022-08-19T15:07:49;39.60;31.00
32107;DHT22;18622;51.998;10.440;2022-08-19T15:10:16;39.60;31.50
32107;DHT22;18622;51.998;10.440;2022-08-19T15:12:44;39.90;31.30
32107;DHT22;18622;51.998;10.440;2022-08-19T15:15:13;40.00;30.50
32107;DHT22;18622;51.998;10.440;2022-08-19T15:17:42;39.80;31.20
32107;DHT22;18622;51.998;10.440;2022-08-19T15:20:11;39.50;32.00
32107;DHT22;18622;51.998;10.440;2022-08-19T15:22:39;39.40;31.80
32107;DHT22;18622;51.998;10.440;2022-08-19T15:25:10;39.30;31.60
32107;DHT22;18622;51.998;10.440;2022-08-19T15:27:38;38.90;32.20
32107;DHT22;18622;51.998;10.440;2022-08-19T15:30:10;38.30;32.00
32107;DHT22;18622;51.998;10.440;2022-08-19T15:32:39;37.40;32.80
32107;DHT22;18622;51.998;10.440;2022-08-19T15:35:07;36.60;33.90
32107;DHT22;18622;51.998;10.440;2022-08-19T15:37:34;36.10;33.90
32107;DHT22;18622;51.998;10.440;2022-08-19T15:40:06;35.80;35.20
32107;DHT22;18622;51.998;10.440;2022-08-19T15:42:36;36.00;34.80
32107;DHT22;18622;51.998;10.440;2022-08-19T15:45:05;35.90;34.20
32107;DHT22;18622;51.998;10.440;2022-08-19T15:47:33;35.60;35.40
32107;DHT22;18622;51.998;10.440;2022-08-19T15:50:09;35.30;34.90
32107;DHT22;18622;51.998;10.440;2022-08-19T15:52:46;34.80;34.80
32107;DHT22;18622;51.998;10.440;2022-08-19T15:55:14;34.30;35.90
32107;DHT22;18622;51.998;10.440;2022-08-19T15:57:42;33.80;36.20
32107;DHT22;18622;51.998;10.440;2022-08-19T16:00:28;33.30;36.90
32107;DHT22;18622;51.998;10.440;2022-08-19T16:03:14;32.90;37.20
32107;DHT22;18622;51.998;10.440;2022-08-19T16:06:00;32.50;37.80
32107;DHT22;18622;51.998;10.440;2022-08-19T16:08:46;32.10;38.00
32107;DHT22;18622;51.998;10.440;2022-08-19T16:11:19;31.80;38.50
32107;DHT22;18622;51.998;10.440;2022-08-19T16:13:48;31.80;38.70
32107;DHT22;18622;51.998;10.440;2022-08-19T16:16:20;31.70;38.50
32107;DHT22;18622;51.998;10.440;2022-08-19T16:18:49;31.80;39.20
32107;DHT22;18622;51.998;10.440;2022-08-19T16:21:20;31.90;39.00
32107;DHT22;18622;51.998;10.440;2022-08-19T16:23:49;32.00;38.80
32107;DHT22;18622;51.998;10.440;2022-08-19T16:26:18;32.00;38.30
32107;DHT22;18622;51.998;10.440;2022-08-19T16:28:46;31.90;38.60
32107;DHT22;18622;51.998;10.440;2022-08-19T16:31:15;31.80;38.20
32107;DHT22;18622;51.998;10.440;2022-08-19T16:33:42;31.60;39.70
32107;DHT22;18622;51.998;10.440;2022-08-19T16:36:10;31.60;38.90
32107;DHT22;18622;51.998;10.440;2022-08-19T16:38:38;31.40;38.90
32107;DHT22;18622;51.998;10.440;2022-08-19T16:41:06;31.20;39.00
32107;DHT22;18622;51.998;10.440;2022-08-19T16:43:34;31.00;39.40
32107;DHT22;18622;51.998;10.440;2022-08-19T16:46:02;30.70;39.60
32107;DHT22;18622;51.998;10.440;2022-08-19T16:48:30;30.50;40.00
32107;DHT22;18622;51.998;10.440;2022-08-19T16:50:59;30.30;40.30
32107;DHT22;18622;51.998;10.440;2022-08-19T16:53:28;30.00;40.60
32107;DHT22;18622;51.998;10.440;2022-08-19T16:55:59;29.80;40.90
32107;DHT22;18622;51.998;10.440;2022-08-19T16:58:28;29.70;41.70
32107;DHT22;18622;51.998;10.440;2022-08-19T17:00:57;29.70;41.60
32107;DHT22;18622;51.998;10.440;2022-08-19T17:03:24;29.50;41.90
32107;DHT22;18622;51.998;10.440;2022-08-19T17:05:54;29.40;43.00
32107;DHT22;18622;51.998;10.440;2022-08-19T17:08:25;29.30;42.60
32107;DHT22;18622;51.998;10.440;2022-08-19T17:10:54;29.20;42.40
32107;DHT22;18622;51.998;10.440;2022-08-19T17:13:26;29.30;43.00
32107;DHT22;18622;51.998;10.440;2022-08-19T17:15:53;29.40;42.70
32107;DHT22;18622;51.998;10.440;2022-08-19T17:18:21;29.50;43.10
32107;DHT22;18622;51.998;10.440;2022-08-19T17:20:50;29.40;42.90
32107;DHT22;18622;51.998;10.440;2022-08-19T17:23:19;29.40;42.70
32107;DHT22;18622;51.998;10.440;2022-08-19T17:25:49;29.20;43.50
32107;DHT22;18622;51.998;10.440;2022-08-19T17:28:20;29.10;43.00
32107;DHT22;18622;51.998;10.440;2022-08-19T17:30:47;29.00;43.30
32107;DHT22;18622;51.998;10.440;2022-08-19T17:33:16;28.80;43.00
32107;DHT22;18622;51.998;10.440;2022-08-19T17:35:44;28.60;43.60
32107;DHT22;18622;51.998;10.440;2022-08-19T17:38:15;28.40;43.70
32107;DHT22;18622;51.998;10.440;2022-08-19T17:40:43;28.20;43.80
32107;DHT22;18622;51.998;10.440;2022-08-19T17:43:12;28.00;44.00
32107;DHT22;18622;51.998;10.440;2022-08-19T17:45:41;27.80;44.00
32107;DHT22;18622;51.998;10.440;2022-08-19T17:48:10;27.60;44.00
32107;DHT22;18622;51.998;10.440;2022-08-19T17:50:38;27.40;44.30
32107;DHT22;18622;51.998;10.440;2022-08-19T17:53:06;27.20;44.40
32107;DHT22;18622;51.998;10.440;2022-08-19T17:55:33;27.10;44.60
32107;DHT22;18622;51.998;10.440;2022-08-19T17:58:03;26.90;44.60
32107;DHT22;18622;51.998;10.440;2022-08-19T18:00:32;26.70;44.80
32107;DHT22;18622;51.998;10.440;2022-08-19T18:03:01;26.60;45.00
32107;DHT22;18622;51.998;10.440;2022-08-19T18:05:31;26.40;45.00
32107;DHT22;18622;51.998;10.440;2022-08-19T18:08:01;26.30;45.60
32107;DHT22;18622;51.998;10.440;2022-08-19T18:10:30;26.10;45.90
32107;DHT22;18622;51.998;10.440;2022-08-19T18:12:57;26.00;45.90
32107;DHT22;18622;51.998;10.440;2022-08-19T18:15:25;25.90;46.00
32107;DHT22;18622;51.998;10.440;2022-08-19T18:17:53;25.80;46.80
32107;DHT22;18622;51.998;10.440;2022-08-19T18:20:22;25.70;47.20
32107;DHT22;18622;51.998;10.440;2022-08-19T18:22:50;25.60;47.40
32107;DHT22;18622;51.998;10.440;2022-08-19T18:25:24;25.50;48.00
32107;DHT22;18622;51.998;10.440;2022-08-19T18:27:53;25.40;48.50
32107;DHT22;18622;51.998;10.440;2022-08-19T18:30:22;25.30;49.40
32107;DHT22;18622;51.998;10.440;2022-08-19T18:32:51;25.10;50.10
32107;DHT22;18622;51.998;10.440;2022-08-19T18:35:24;25.00;50.80
32107;DHT22;18622;51.998;10.440;2022-08-19T18:37:54;24.80;51.30
32107;DHT22;18622;51.998;10.440;2022-08-19T18:40:23;24.60;52.10
32107;DHT22;18622;51.998;10.440;2022-08-19T18:43:09;24.40;52.60
32107;DHT22;18622;51.998;10.440;2022-08-19T18:45:45;24.20;53.10
32107;DHT22;18622;51.998;10.440;2022-08-19T18:48:30;23.90;53.70
32107;DHT22;18622;51.998;10.440;2022-08-19T18:51:16;23.80;54.30
32107;DHT22;18622;51.998;10.440;2022-08-19T18:53:46;23.60;54.90
32107;DHT22;18622;51.998;10.440;2022-08-19T18:56:16;23.40;55.30
32107;DHT22;18622;51.998;10.440;2022-08-19T18:58:45;23.20;55.70
32107;DHT22;18622;51.998;10.440;2022-08-19T19:01:20;23.10;56.10
32107;DHT22;18622;51.998;10.440;2022-08-19T19:03:51;22.90;56.70
32107;DHT22;18622;51.998;10.440;2022-08-19T19:06:24;22.80;57.10
32107;DHT22;18622;51.998;10.440;2022-08-19T19:08:53;22.70;57.50
32107;DHT22;18622;51.998;10.440;2022-08-19T19:11:23;22.50;57.90
32107;DHT22;18622;51.998;10.440;2022-08-19T19:13:52;22.40;58.50
32107;DHT22;18622;51.998;10.440;2022-08-19T19:16:20;22.30;59.10
32107;DHT22;18622;51.998;10.440;2022-08-19T19:18:48;22.10;59.80
32107;DHT22;18622;51.998;10.440;2022-08-19T19:21:23;22.00;60.30
32107;DHT22;18622;51.998;10.440;2022-08-19T19:23:51;21.90;60.90
32107;DHT22;18622;51.998;10.440;2022-08-19T19:26:19;21.70;61.50
32107;DHT22;18622;51.998;10.440;2022-08-19T19:28:48;21.60;62.20
32107;DHT22;18622;51.998;10.440;2022-08-19T19:31:20;21.60;62.60
32107;DHT22;18622;51.998;10.440;2022-08-19T19:33:53;21.50;63.40
32107;DHT22;18622;51.998;10.440;2022-08-19T19:36:22;21.40;64.40
32107;DHT22;18622;51.998;10.440;2022-08-19T19:38:50;21.40;64.60
32107;DHT22;18622;51.998;10.440;2022-08-19T19:41:20;21.30;65.20
32107;DHT22;18622;51.998;10.440;2022-08-19T19:43:53;21.30;66.00
32107;DHT22;18622;51.998;10.440;2022-08-19T19:46:20;21.30;66.90
32107;DHT22;18622;51.998;10.440;2022-08-19T19:48:48;21.30;66.90
32107;DHT22;18622;51.998;10.440;2022-08-19T19:51:15;21.20;67.90
32107;DHT22;18622;51.998;10.440;2022-08-19T19:53:45;21.20;68.30
32107;DHT22;18622;51.998;10.440;2022-08-19T19:56:12;21.20;68.70
32107;DHT22;18622;51.998;10.440;2022-08-19T19:58:40;21.20;69.20
32107;DHT22;18622;51.998;10.440;2022-08-19T20:01:09;21.20;69.60
32107;DHT22;18622;51.998;10.440;2022-08-19T20:03:39;21.20;70.00
32107;DHT22;18622;51.998;10.440;2022-08-19T20:06:09;21.20;70.40
32107;DHT22;18622;51.998;10.440;2022-08-19T20:08:37;21.20;70.70
32107;DHT22;18622;51.998;10.440;2022-08-19T20:11:33;21.20;71.10
32107;DHT22;18622;51.998;10.440;2022-08-19T20:14:00;21.20;71.20
32107;DHT22;18622;51.998;10.440;2022-08-19T20:16:28;21.20;72.00
32107;DHT22;18622;51.998;10.440;2022-08-19T20:18:58;21.20;72.30
32107;DHT22;18622;51.998;10.440;2022-08-19T20:21:28;21.20;72.70
32107;DHT22;18622;51.998;10.440;2022-08-19T20:24:00;21.20;73.20
32107;DHT22;18622;51.998;10.440;2022-08-19T20:26:28;21.20;73.60
32107;DHT22;18622;51.998;10.440;2022-08-19T20:28:56;21.10;73.50
32107;DHT22;18622;51.998;10.440;2022-08-19T20:31:25;21.20;73.70
32107;DHT22;18622;51.998;10.440;2022-08-19T20:33:53;21.20;74.10
32107;DHT22;18622;51.998;10.440;2022-08-19T20:36:21;21.20;74.20
32107;DHT22;18622;51.998;10.440;2022-08-19T20:38:50;21.20;74.30
32107;DHT22;18622;51.998;10.440;2022-08-19T20:41:18;21.20;74.50
32107;DHT22;18622;51.998;10.440;2022-08-19T20:43:46;21.20;74.80
32107;DHT22;18622;51.998;10.440;2022-08-19T20:46:14;21.20;75.50
32107;DHT22;18622;51.998;10.440;2022-08-19T20:48:42;21.20;75.60
32107;DHT22;18622;51.998;10.440;2022-08-19T20:51:11;21.20;76.10
32107;DHT22;18622;51.998;10.440;2022-08-19T20:53:40;21.20;76.30
32107;DHT22;18622;51.998;10.440;2022-08-19T20:56:08;21.20;76.60
32107;DHT22;18622;51.998;10.440;2022-08-19T20:58:36;21.20;76.90
32107;DHT22;18622;51.998;10.440;2022-08-19T21:01:05;21.20;77.00
32107;DHT22;18622;51.998;10.440;2022-08-19T21:03:36;21.20;77.10
32107;DHT22;18622;51.998;10.440;2022-08-19T21:06:11;21.10;77.50
32107;DHT22;18622;51.998;10.440;2022-08-19T21:08:39;21.10;77.50
32107;DHT22;18622;51.998;10.440;2022-08-19T21:11:08;21.10;77.70
32107;DHT22;18622;51.998;10.440;2022-08-19T21:13:36;21.10;77.80
32107;DHT22;18622;51.998;10.440;2022-08-19T21:16:04;21.10;77.90
32107;DHT22;18622;51.998;10.440;2022-08-19T21:18:32;21.10;78.20
32107;DHT22;18622;51.998;10.440;2022-08-19T21:21:01;21.10;78.30
32107;DHT22;18622;51.998;10.440;2022-08-19T21:23:30;21.10;78.60
32107;DHT22;18622;51.998;10.440;2022-08-19T21:25:59;21.20;79.00
32107;DHT22;18622;51.998;10.440;2022-08-19T21:28:27;21.20;78.90
32107;DHT22;18622;51.998;10.440;2022-08-19T21:30:56;21.10;79.10
32107;DHT22;18622;51.998;10.440;2022-08-19T21:33:27;21.20;79.40
32107;DHT22;18622;51.998;10.440;2022-08-19T21:35:57;21.10;79.30
32107;DHT22;18622;51.998;10.440;2022-08-19T21:38:25;21.10;79.60
32107;DHT22;18622;51.998;10.440;2022-08-19T21:40:54;21.10;79.70
32107;DHT22;18622;51.998;10.440;2022-08-19T21:43:22;21.10;79.70
